Time;durP1;ratioP1;P1;durP2;ratioP2;P2;SDS_P1;SDS_P2;PMS_P1;PMS_P2;Temp;Humidity;BMP_temperature;BMP_pressure;BME280_temperature;BME280_humidity;BME280_pressure;Samples;Min_cycle;Max_cycle;Signal;HPM_P1;HPM_P2
2023/05/31 00:00:25;;;;;;;9.98;3.75;;;;;;;;;;5484270;23;20075;-94
2023/05/31 01:09:25;;;;;;;7.43;4.20;;;;;;;;;;4976694;29;20050;-96
2023/05/31 01:28:10;;;;;;;7.85;4.43;;;;;;;;;;4975855;29;20081;-96
2023/05/31 01:51:39;;;;;;;7.72;4.60;;;;;;;;;;4948633;29;20042;-95
2023/05/31 01:57:55;;;;;;;;;;;;;;;;;;;;;
2023/05/31 02:16:06;;;;;;;9.17;4.30;;;;;;;;;;4918262;29;20043;-94
2023/05/31 02:28:13;;;;;;;13.35;4.90;;;;;;;;;;6007502;23;20385;-96
2023/05/31 02:34:09;;;;;;;;;;;;;;;;;;;;;
2023/05/31 02:52:26;;;;;;;9.67;4.80;;;;;;;;;;4864744;29;20094;-96
2023/05/31 02:55:17;;;;;;;9.38;4.70;;;;;;;;;;4911029;29;20028;-96
2023/05/31 02:58:40;;;;;;;8.00;4.40;;;;;;;;;;4858552;29;20042;-96
2023/05/31 03:01:51;;;;;;;;;;;;;;;;;;;;;
2023/05/31 03:07:49;;;;;;;;;;;;;;;;;;;;;
2023/05/31 03:13:29;;;;;;;6.50;4.28;;;;;;;;;;4919908;29;20364;-96
2023/05/31 03:16:20;;;;;;;8.70;4.40;;;;;;;;;;4949708;29;20051;-96
2023/05/31 03:18:54;;;;;;;8.65;4.45;;;;;;;;;;4950497;29;20095;-96
2023/05/31 03:21:21;;;;;;;9.40;4.32;;;;;;;;;;5084866;23;20110;-96
2023/05/31 03:24:34;;;;;;;9.93;4.55;;;;;;;;;;4971471;29;20038;-96
2023/05/31 03:27:23;;;;;;;9.25;4.35;;;;;;;;;;5049237;23;20083;-95
2023/05/31 03:42:11;;;;;;;10.20;4.72;;;;;;;;;;4859876;29;20102;-96
2023/05/31 03:48:11;;;;;;;8.45;4.47;;;;;;;;;;4823009;29;20031;-96
2023/05/31 03:54:08;;;;;;;11.52;4.85;;;;;;;;;;4821594;29;20214;-96
2023/05/31 03:59:45;;;;;;;11.80;5.03;;;;;;;;;;4840766;29;19912;-96
2023/05/31 04:05:42;;;;;;;;;;;;;;;;;;;;;
2023/05/31 04:34:04;;;;;;;9.10;4.40;;;;;;;;;;4729856;30;20035;-94
2023/05/31 04:39:57;;;;;;;7.85;4.20;;;;;;;;;;5330443;23;20101;-95
2023/05/31 04:42:24;;;;;;;9.63;3.75;;;;;;;;;;4919329;29;20044;-94
2023/05/31 04:45:15;;;;;;;8.48;3.72;;;;;;;;;;4921041;29;20028;-93
2023/05/31 04:47:49;;;;;;;6.78;3.95;;;;;;;;;;4891228;29;20080;-95
2023/05/31 04:59:20;;;;;;;10.85;3.83;;;;;;;;;;2633267;23;20269;-94
2023/05/31 05:01:46;;;;;;;7.32;3.38;;;;;;;;;;4904007;29;20052;-95
2023/05/31 05:04:41;;;;;;;;;;;;;;;;;;;;;
2023/05/31 05:07:15;;;;;;;12.20;3.90;;;;;;;;;;4930383;29;20122;-92
2023/05/31 05:10:12;;;;;;;7.75;3.50;;;;;;;;;;4922394;29;20035;-92
2023/05/31 05:15:44;;;;;;;12.25;4.05;;;;;;;;;;4901526;29;20075;-95
2023/05/31 05:18:10;;;;;;;7.15;3.90;;;;;;;;;;4907346;29;20033;-93
2023/05/31 06:01:51;;;;;;;10.35;3.65;;;;;;;;;;5049008;23;20073;-91
2023/05/31 06:04:49;;;;;;;7.60;3.15;;;;;;;;;;4945239;29;20071;-94
2023/05/31 06:07:19;;;;;;;7.15;3.60;;;;;;;;;;4934934;29;20039;-93
2023/05/31 06:09:45;;;;;;;8.50;3.40;;;;;;;;;;4939680;29;20091;-92
2023/05/31 06:12:13;;;;;;;8.25;3.22;;;;;;;;;;4939612;29;20031;-94
2023/05/31 06:14:39;;;;;;;7.88;3.72;;;;;;;;;;4938621;29;20043;-94
2023/05/31 06:17:06;;;;;;;7.15;3.55;;;;;;;;;;4937542;29;20087;-94
2023/05/31 06:19:34;;;;;;;6.40;3.10;;;;;;;;;;4938709;29;20047;-94
2023/05/31 06:22:01;;;;;;;7.43;3.47;;;;;;;;;;4938356;29;20106;-93
2023/05/31 06:24:27;;;;;;;6.22;3.40;;;;;;;;;;4937923;29;20031;-91
2023/05/31 06:26:58;;;;;;;10.60;4.03;;;;;;;;;;4939241;29;20087;-95
2023/05/31 06:29:24;;;;;;;10.07;4.30;;;;;;;;;;4950146;29;20043;-92
2023/05/31 06:32:00;;;;;;;7.50;3.33;;;;;;;;;;4934036;29;20123;-96
2023/05/31 06:34:26;;;;;;;6.50;3.40;;;;;;;;;;4937944;29;20388;-91
2023/05/31 06:40:22;;;;;;;6.85;3.33;;;;;;;;;;4866972;29;20047;-95
2023/05/31 06:42:53;;;;;;;5.72;3.17;;;;;;;;;;4926738;29;20400;-93
2023/05/31 06:45:23;;;;;;;6.22;3.22;;;;;;;;;;4936703;29;20028;-93
2023/05/31 06:47:51;;;;;;;6.25;3.20;;;;;;;;;;4935341;29;20040;-93
2023/05/31 06:50:33;;;;;;;6.40;3.13;;;;;;;;;;4930846;29;20185;-93
2023/05/31 06:53:03;;;;;;;7.30;3.30;;;;;;;;;;4932279;29;20012;-94
2023/05/31 06:55:34;;;;;;;4.50;2.70;;;;;;;;;;4932754;29;20055;-92
2023/05/31 06:58:05;;;;;;;10.13;3.40;;;;;;;;;;4928096;28;20028;-95
2023/05/31 07:00:43;;;;;;;4.28;2.70;;;;;;;;;;4940900;28;20024;-96
2023/05/31 07:03:09;;;;;;;25.60;3.85;;;;;;;;;;4934885;29;20071;-93
2023/05/31 07:05:43;;;;;;;6.75;2.92;;;;;;;;;;4927966;29;20083;-95
2023/05/31 07:11:22;;;;;;;10.18;3.10;;;;;;;;;;4893719;29;20078;-93
2023/05/31 07:13:48;;;;;;;;;;;;;;;;;;5132530;23;20052;-95
2023/05/31 07:16:47;;;;;;;6.53;3.08;;;;;;;;;;4948045;29;20275;-95
2023/05/31 07:19:16;;;;;;;6.35;3.10;;;;;;;;;;4938166;29;20035;-91
2023/05/31 07:21:42;;;;;;;6.57;3.10;;;;;;;;;;4950871;28;20035;-92
2023/05/31 07:33:33;;;;;;;11.57;3.38;;;;;;;;;;4933501;29;20050;-96
2023/05/31 07:36:08;;;;;;;8.98;3.83;;;;;;;;;;4923698;29;20059;-95
2023/05/31 07:38:38;;;;;;;7.47;3.53;;;;;;;;;;4917279;29;20036;-92
2023/05/31 07:41:04;;;;;;;6.13;3.40;;;;;;;;;;4917109;29;20095;-92
2023/05/31 07:43:34;;;;;;;6.78;3.65;;;;;;;;;;4917017;29;20032;-95
2023/05/31 07:46:00;;;;;;;9.88;3.47;;;;;;;;;;4917365;29;20371;-93
2023/05/31 07:48:32;;;;;;;10.82;3.47;;;;;;;;;;4917119;29;20024;-95
2023/05/31 07:50:58;;;;;;;7.35;3.20;;;;;;;;;;4917667;29;20036;-95
2023/05/31 07:53:24;;;;;;;7.50;3.25;;;;;;;;;;4919552;29;20394;-93
2023/05/31 07:55:56;;;;;;;9.13;3.30;;;;;;;;;;4919634;29;20024;-94
2023/05/31 07:59:06;;;;;;;;;;;;;;;;;;;;;
2023/05/31 08:01:51;;;;;;;6.40;3.33;;;;;;;;;;4918299;29;20016;-94
2023/05/31 08:04:38;;;;;;;9.07;3.20;;;;;;;;;;4937563;29;20143;-94
2023/05/31 08:07:13;;;;;;;4.85;2.60;;;;;;;;;;5310801;23;20051;-94
2023/05/31 08:09:48;;;;;;;7.88;3.20;;;;;;;;;;4925947;29;20031;-94
2023/05/31 08:12:23;;;;;;;8.38;3.40;;;;;;;;;;4925608;29;20498;-92
2023/05/31 08:15:15;;;;;;;7.65;3.20;;;;;;;;;;4920289;29;20397;-93
2023/05/31 17:36:30;;;;;;;12.82;4.45;;;;;;;;;;5210111;23;20052;-94
2023/05/31 17:39:02;;;;;;;14.67;4.00;;;;;;;;;;4935389;29;20043;-93
2023/05/31 17:50:16;;;;;;;24.90;5.00;;;;;;;;;;4920931;29;20038;-96
2023/05/31 17:52:46;;;;;;;14.57;4.72;;;;;;;;;;4902319;29;20048;-94
2023/05/31 17:55:35;;;;;;;15.18;4.47;;;;;;;;;;4905184;29;20028;-95
2023/05/31 17:58:09;;;;;;;72.68;7.75;;;;;;;;;;4913559;29;20044;-92
2023/05/31 18:00:41;;;;;;;28.00;5.72;;;;;;;;;;4919941;29;20048;-93
2023/05/31 18:03:10;;;;;;;34.50;5.68;;;;;;;;;;4919329;29;20396;-91
2023/05/31 18:05:42;;;;;;;9.98;5.05;;;;;;;;;;4919153;29;20031;-92
2023/05/31 18:08:11;;;;;;;20.35;5.63;;;;;;;;;;4919247;29;20032;-91
2023/05/31 18:10:37;;;;;;;41.63;6.50;;;;;;;;;;4904726;29;20032;-92
2023/05/31 18:13:03;;;;;;;20.05;5.10;;;;;;;;;;4901660;29;20119;-92
2023/05/31 18:15:46;;;;;;;26.23;5.43;;;;;;;;;;4920266;29;20111;-93
2023/05/31 18:22:34;;;;;;;48.28;6.03;;;;;;;;;;4902208;29;20092;-96
2023/05/31 18:25:30;;;;;;;;;;;;;;;;;;;;;
2023/05/31 18:35:04;;;;;;;17.02;5.15;;;;;;;;;;4825985;29;20427;-96
2023/05/31 18:44:24;;;;;;;52.45;6.32;;;;;;;;;;5037991;23;20497;31
